Time;durP1;ratioP1;P1;durP2;ratioP2;P2;SDS_P1;SDS_P2;PMS_P1;PMS_P2;Temp;Humidity;BMP_temperature;BMP_pressure;BME280_temperature;BME280_humidity;BME280_pressure;Samples;Min_cycle;Max_cycle;Signal;HPM_P1;HPM_P2
2021/01/14 00:00:39;;;;;;;3.63;2.03;;;0.90;99.90;;;;;;5014741;28;20499;-47
2021/01/14 00:03:08;;;;;;;3.83;1.73;;;0.80;99.90;;;;;;5015708;28;20508;-48
2021/01/14 00:05:36;;;;;;;4.87;1.93;;;0.80;99.90;;;;;;5007828;28;20895;-47
2021/01/14 00:08:05;;;;;;;9.50;1.90;;;0.90;99.90;;;;;;5011554;28;20471;-47
2021/01/14 00:10:36;;;;;;;3.47;1.77;;;0.90;99.90;;;;;;5009216;28;21008;-48
2021/01/14 00:13:03;;;;;;;4.90;1.43;;;0.90;99.90;;;;;;5029232;28;20471;-47
2021/01/14 00:15:31;;;;;;;2.83;1.80;;;1.00;99.90;;;;;;5010041;28;20484;-48
2021/01/14 00:17:58;;;;;;;2.30;1.83;;;1.00;99.90;;;;;;5009482;28;20884;-48
2021/01/14 00:20:27;;;;;;;3.30;1.80;;;1.00;99.90;;;;;;5012774;28;20822;-48
2021/01/14 00:22:54;;;;;;;3.77;1.67;;;1.00;99.90;;;;;;5020610;28;20543;-47
2021/01/14 00:25:22;;;;;;;3.10;2.03;;;1.00;99.90;;;;;;5029027;28;21025;-47
2021/01/14 00:27:51;;;;;;;5.03;2.30;;;1.00;99.90;;;;;;5028830;28;21068;-47
2021/01/14 00:30:26;;;;;;;6.13;2.17;;;1.00;99.90;;;;;;5019282;28;20953;-47
2021/01/14 00:32:53;;;;;;;4.03;1.97;;;1.10;99.90;;;;;;5008303;28;20480;-47
2021/01/14 00:35:21;;;;;;;4.00;1.90;;;1.00;99.90;;;;;;5010700;28;20488;-48
2021/01/14 00:37:50;;;;;;;5.13;2.00;;;1.00;99.90;;;;;;5008837;28;20500;-47
2021/01/14 00:40:21;;;;;;;6.50;1.83;;;1.10;99.90;;;;;;5011269;28;20478;-47
2021/01/14 00:42:55;;;;;;;4.63;2.30;;;1.00;99.90;;;;;;5020055;28;21052;-48
2021/01/14 00:45:23;;;;;;;3.63;1.93;;;1.00;99.90;;;;;;5028386;28;20483;-47
2021/01/14 00:47:51;;;;;;;3.60;2.00;;;1.00;99.90;;;;;;5026147;28;20602;-48
2021/01/14 00:50:18;;;;;;;5.83;2.40;;;1.00;99.90;;;;;;5008917;28;20512;-47
2021/01/14 00:52:45;;;;;;;5.13;2.40;;;1.00;99.90;;;;;;5008553;28;20664;-47
2021/01/14 00:55:15;;;;;;;4.63;2.40;;;1.00;99.90;;;;;;5009202;28;20560;-47
2021/01/14 00:57:51;;;;;;;3.20;2.13;;;1.00;99.90;;;;;;5007664;28;20480;-47
2021/01/14 01:00:21;;;;;;;6.03;2.57;;;0.90;99.90;;;;;;5008675;28;21078;-47
2021/01/14 01:02:51;;;;;;;3.93;2.40;;;0.90;99.90;;;;;;5006339;28;20496;-47
2021/01/14 01:05:21;;;;;;;5.03;2.40;;;0.90;99.90;;;;;;5011864;28;20484;-47
2021/01/14 01:07:50;;;;;;;4.53;1.97;;;0.90;99.90;;;;;;5017163;28;20635;-47
2021/01/14 01:10:18;;;;;;;6.13;2.63;;;0.90;99.90;;;;;;5010626;28;20534;-47
2021/01/14 01:12:51;;;;;;;5.90;2.67;;;0.90;99.90;;;;;;5027659;28;20812;-47
2021/01/14 01:15:19;;;;;;;4.63;2.80;;;0.90;99.90;;;;;;5027998;28;20482;-47
2021/01/14 01:17:47;;;;;;;5.07;2.60;;;0.90;99.90;;;;;;5026511;28;20486;-48
2021/01/14 01:20:15;;;;;;;4.77;3.03;;;0.90;99.90;;;;;;5008403;28;20550;-48
2021/01/14 01:22:42;;;;;;;6.73;3.43;;;0.90;99.90;;;;;;5007618;28;20976;-47
2021/01/14 01:25:10;;;;;;;6.33;2.83;;;0.90;99.90;;;;;;5008305;28;20511;-47
2021/01/14 01:27:38;;;;;;;4.23;2.40;;;0.90;99.90;;;;;;5010333;28;20476;-47
2021/01/14 01:30:08;;;;;;;5.63;2.93;;;1.00;99.90;;;;;;5017219;28;20563;-47
2021/01/14 01:32:37;;;;;;;4.77;2.90;;;1.00;99.90;;;;;;5027313;28;20479;-47
2021/01/14 01:35:06;;;;;;;4.13;2.80;;;1.00;99.90;;;;;;5027879;28;20534;-48
2021/01/14 01:37:33;;;;;;;4.83;2.87;;;1.00;99.90;;;;;;5027230;28;20511;-47
2021/01/14 01:40:00;;;;;;;7.03;3.10;;;1.00;99.90;;;;;;5008599;28;20504;-47
2021/01/14 01:42:28;;;;;;;5.33;3.20;;;1.00;99.90;;;;;;5010057;28;20483;-47
2021/01/14 01:44:55;;;;;;;4.80;3.07;;;1.00;99.90;;;;;;5008046;28;20538;-47
2021/01/14 01:47:32;;;;;;;3.53;3.10;;;1.00;99.90;;;;;;5011211;28;20483;-47
2021/01/14 01:50:04;;;;;;;5.87;2.87;;;1.00;99.90;;;;;;5019247;28;20479;-48
2021/01/14 01:52:34;;;;;;;6.37;3.20;;;1.00;99.90;;;;;;5027142;28;20525;-47
2021/01/14 01:55:04;;;;;;;4.87;3.40;;;1.00;99.90;;;;;;5028070;28;20475;-47
2021/01/14 01:57:31;;;;;;;7.83;3.33;;;1.00;99.90;;;;;;5015967;28;20476;-47
2021/01/14 01:59:58;;;;;;;8.07;3.77;;;1.10;99.90;;;;;;5006640;28;20582;-47
2021/01/14 02:02:27;;;;;;;5.50;3.40;;;1.10;99.90;;;;;;5005694;28;20494;-47
2021/01/14 02:04:57;;;;;;;8.07;4.60;;;1.10;99.90;;;;;;5010471;28;20555;-48
2021/01/14 02:07:49;;;;;;;7.03;4.43;;;1.10;99.90;;;;;;5001530;28;21160;-47
2021/01/14 02:10:25;;;;;;;7.20;3.83;;;1.10;99.90;;;;;;5019938;28;20559;-48
2021/01/14 02:13:05;;;;;;;6.73;4.07;;;1.10;99.90;;;;;;5006208;28;20867;-48
2021/01/14 02:15:34;;;;;;;5.77;3.80;;;1.10;99.90;;;;;;5007672;28;20658;-47
2021/01/14 02:18:01;;;;;;;5.43;3.73;;;1.10;99.90;;;;;;5007640;28;20484;-48
2021/01/14 02:20:31;;;;;;;7.73;3.93;;;1.10;99.90;;;;;;5007240;28;21009;-48
2021/01/14 02:23:06;;;;;;;8.93;3.90;;;1.10;99.90;;;;;;5007203;28;20555;-47
2021/01/14 02:25:59;;;;;;;6.13;4.23;;;1.20;99.90;;;;;;5007250;28;20890;-48
2021/01/14 02:28:27;;;;;;;9.23;4.87;;;1.20;99.90;;;;;;5009799;28;20485;-47
2021/01/14 02:30:56;;;;;;;11.70;4.30;;;1.20;99.90;;;;;;5007643;28;20575;-47
2021/01/14 02:33:23;;;;;;;7.67;4.80;;;1.20;99.90;;;;;;5018484;28;20490;-47
2021/01/14 02:35:52;;;;;;;8.50;4.80;;;1.20;99.90;;;;;;5027246;28;20570;-47
2021/01/14 02:38:19;;;;;;;8.40;4.20;;;1.20;99.90;;;;;;5027219;28;21003;-48
2021/01/14 02:40:47;;;;;;;7.53;4.27;;;1.30;99.90;;;;;;5024924;28;20522;-48
2021/01/14 02:43:15;;;;;;;8.10;5.20;;;1.30;99.90;;;;;;5007208;28;20543;-48
2021/01/14 02:45:42;;;;;;;7.63;4.33;;;1.30;99.90;;;;;;5007652;28;20472;-47
2021/01/14 02:48:15;;;;;;;7.97;5.00;;;1.30;99.90;;;;;;5007168;28;20476;-47
2021/01/14 02:50:43;;;;;;;8.07;4.80;;;1.30;99.90;;;;;;5013268;28;20479;-47
2021/01/14 02:53:15;;;;;;;8.03;5.03;;;1.30;99.90;;;;;;5018586;28;20482;-47
2021/01/14 02:55:50;;;;;;;6.97;5.17;;;1.30;99.90;;;;;;5026567;28;20483;-47
2021/01/14 02:58:18;;;;;;;9.43;5.23;;;1.30;99.90;;;;;;5014587;28;20476;-47
2021/01/14 03:00:46;;;;;;;10.43;4.87;;;1.30;99.90;;;;;;5007187;28;20471;-48
2021/01/14 03:03:14;;;;;;;6.97;5.07;;;1.30;99.90;;;;;;5012058;28;20534;-47
2021/01/14 03:05:42;;;;;;;9.17;4.90;;;1.30;99.90;;;;;;5011066;28;20471;-48
2021/01/14 03:08:09;;;;;;;8.80;5.33;;;1.30;99.90;;;;;;5010963;28;20490;-47
2021/01/14 03:10:37;;;;;;;9.20;6.00;;;1.30;99.90;;;;;;5016038;28;20557;-47
2021/01/14 03:13:05;;;;;;;10.43;5.20;;;1.30;99.90;;;;;;5021694;28;20499;-48
2021/01/14 03:15:36;;;;;;;9.60;5.43;;;1.30;99.90;;;;;;5030591;28;20479;-48
2021/01/14 03:18:04;;;;;;;7.43;5.10;;;1.20;99.90;;;;;;5030357;28;20515;-47
2021/01/14 03:20:31;;;;;;;8.20;4.90;;;1.20;99.90;;;;;;5017364;28;20496;-48
2021/01/14 03:23:03;;;;;;;12.67;6.30;;;1.20;99.90;;;;;;5010223;28;20481;-47
2021/01/14 03:25:30;;;;;;;11.93;6.40;;;1.20;99.90;;;;;;5010882;28;20926;-48
2021/01/14 03:27:58;;;;;;;9.40;5.87;;;1.30;99.90;;;;;;5011727;28;20604;-47
2021/01/14 03:30:26;;;;;;;9.60;5.93;;;1.30;99.90;;;;;;5014258;28;20487;-47
2021/01/14 03:32:58;;;;;;;12.40;6.57;;;1.30;99.90;;;;;;5021705;28;20808;-47
2021/01/14 03:35:26;;;;;;;10.50;5.97;;;1.30;99.90;;;;;;5030106;28;21031;-48
2021/01/14 03:37:54;;;;;;;10.33;6.07;;;1.30;99.90;;;;;;5029984;28;20481;-47
2021/01/14 03:40:21;;;;;;;10.13;6.27;;;1.30;99.90;;;;;;5025727;28;20582;-47
2021/01/14 03:42:48;;;;;;;9.50;6.47;;;1.30;99.90;;;;;;5029871;28;20479;-47
2021/01/14 03:45:16;;;;;;;10.40;6.10;;;1.30;99.90;;;;;;5030292;28;20533;-48
2021/01/14 03:47:44;;;;;;;10.13;6.60;;;1.30;99.90;;;;;;5030046;28;20971;-48
2021/01/14 03:50:12;;;;;;;12.47;6.80;;;1.30;99.90;;;;;;5022223;28;20474;-48
2021/01/14 03:52:40;;;;;;;9.50;5.90;;;1.30;99.90;;;;;;5020533;28;21021;-48
2021/01/14 03:55:09;;;;;;;10.50;6.50;;;1.30;99.90;;;;;;5019214;28;20497;-47
2021/01/14 03:57:37;;;;;;;13.23;6.77;;;1.30;99.90;;;;;;5008642;28;20467;-47
2021/01/14 04:00:26;;;;;;;11.50;6.80;;;1.30;99.90;;;;;;5008901;28;20529;-48
2021/01/14 04:02:54;;;;;;;11.57;6.53;;;1.30;99.90;;;;;;5025431;28;20529;-48
2021/01/14 04:05:21;;;;;;;10.97;7.10;;;1.30;99.90;;;;;;5029311;28;20563;-47
2021/01/14 04:07:49;;;;;;;11.73;7.13;;;1.30;99.90;;;;;;5029461;28;20994;-48
2021/01/14 04:10:16;;;;;;;11.60;6.87;;;1.40;99.90;;;;;;5021437;28;20876;-48
2021/01/14 04:12:43;;;;;;;12.67;7.40;;;1.40;99.90;;;;;;5021101;28;20938;-48
2021/01/14 04:15:12;;;;;;;12.17;7.33;;;1.40;99.90;;;;;;5029122;28;20925;-48
2021/01/14 04:17:40;;;;;;;10.73;6.93;;;1.40;99.90;;;;;;5027208;28;21030;-48
2021/01/14 04:20:10;;;;;;;9.33;6.83;;;1.40;99.90;;;;;;5009706;28;20948;-47
2021/01/14 04:22:37;;;;;;;10.83;6.93;;;1.40;99.90;;;;;;5011235;28;20495;-47
2021/01/14 04:25:10;;;;;;;13.83;7.67;;;1.40;99.90;;;;;;5009468;28;20476;-47
2021/01/14 04:27:38;;;;;;;8.67;6.90;;;1.40;99.90;;;;;;5008969;28;20961;-47
2021/01/14 04:30:07;;;;;;;11.90;7.07;;;1.40;99.90;;;;;;5017070;28;20476;-47
2021/01/14 04:32:34;;;;;;;10.40;6.63;;;1.40;99.90;;;;;;5021679;28;20538;-47
2021/01/14 04:35:01;;;;;;;12.40;7.30;;;1.40;99.90;;;;;;5029355;28;20530;-47
2021/01/14 04:37:32;;;;;;;12.93;6.70;;;1.40;99.90;;;;;;5028866;28;20510;-47
2021/01/14 04:39:59;;;;;;;11.37;6.73;;;1.40;99.90;;;;;;5009133;28;20555;-47
2021/01/14 04:42:34;;;;;;;10.63;6.50;;;1.40;99.90;;;;;;5008477;28;20480;-47
2021/01/14 04:45:04;;;;;;;11.07;6.60;;;1.50;99.90;;;;;;5009010;28;20483;-47
2021/01/14 04:47:32;;;;;;;11.40;6.30;;;1.40;99.90;;;;;;5008893;28;20508;-48
2021/01/14 04:50:00;;;;;;;10.33;7.00;;;1.40;99.90;;;;;;5017364;28;20546;-47
2021/01/14 04:52:34;;;;;;;9.07;6.33;;;1.40;99.90;;;;;;5026511;28;20545;-48
2021/01/14 04:55:03;;;;;;;9.87;6.43;;;1.40;99.90;;;;;;5010333;28;20499;-47
2021/01/14 04:57:35;;;;;;;11.60;6.80;;;1.40;99.90;;;;;;5011049;28;20640;-47
2021/01/14 05:00:04;;;;;;;12.13;6.73;;;1.40;99.90;;;;;;5025847;28;20550;-48
2021/01/14 05:02:43;;;;;;;11.97;6.90;;;1.40;99.90;;;;;;5027718;28;20567;-47
2021/01/14 05:05:13;;;;;;;12.23;6.53;;;1.40;99.90;;;;;;5028882;28;20883;-48
2021/01/14 05:07:54;;;;;;;12.17;6.60;;;1.40;99.90;;;;;;5014564;28;20496;-47
2021/01/14 05:10:23;;;;;;;10.40;6.40;;;1.40;99.90;;;;;;5016276;28;20929;-48
2021/01/14 05:12:55;;;;;;;12.47;6.50;;;1.40;99.90;;;;;;5023889;28;20475;-48
2021/01/14 05:15:26;;;;;;;12.53;6.47;;;1.40;99.90;;;;;;5028216;28;20537;-47
2021/01/14 05:17:54;;;;;;;11.27;6.63;;;1.40;99.90;;;;;;5013224;28;20532;-47
2021/01/14 05:20:21;;;;;;;11.37;6.80;;;1.40;99.90;;;;;;5008164;28;20837;-47
2021/01/14 05:22:58;;;;;;;11.13;6.20;;;1.40;99.90;;;;;;5007586;28;20799;-48
2021/01/14 05:25:26;;;;;;;9.50;6.37;;;1.40;99.90;;;;;;5007108;28;20477;-47
2021/01/14 05:27:54;;;;;;;10.77;6.93;;;1.40;99.90;;;;;;5007835;28;20504;-48
2021/01/14 05:30:22;;;;;;;12.50;6.33;;;1.40;99.90;;;;;;5009680;28;20942;-47
2021/01/14 05:32:50;;;;;;;10.47;6.60;;;1.40;99.90;;;;;;5007285;28;20480;-47
2021/01/14 05:35:28;;;;;;;12.53;6.60;;;1.40;99.90;;;;;;5007906;28;20571;-48
2021/01/14 05:38:03;;;;;;;9.13;6.00;;;1.40;99.90;;;;;;5014755;28;21163;-48
2021/01/14 05:40:31;;;;;;;12.63;7.17;;;1.40;99.90;;;;;;5007165;28;20481;-48
2021/01/14 05:43:05;;;;;;;8.80;6.60;;;1.40;99.90;;;;;;5006277;28;20493;-47
2021/01/14 05:45:33;;;;;;;11.00;6.07;;;1.40;99.90;;;;;;5006820;28;20481;-48
2021/01/14 05:48:12;;;;;;;12.90;6.50;;;1.40;99.90;;;;;;5009460;28;20516;-47
2021/01/14 05:50:45;;;;;;;13.37;7.07;;;1.40;99.90;;;;;;5002076;28;20477;-47
2021/01/14 05:53:18;;;;;;;8.57;6.00;;;1.40;99.90;;;;;;4997706;28;20476;-47
2021/01/14 05:55:51;;;;;;;8.97;5.77;;;1.40;99.90;;;;;;5001406;28;20566;-49
2021/01/14 05:58:20;;;;;;;10.77;5.83;;;1.40;99.90;;;;;;5001017;28;20579;-48
2021/01/14 06:00:49;;;;;;;8.77;5.67;;;1.40;99.90;;;;;;5001364;28;20476;-47
2021/01/14 06:03:27;;;;;;;10.67;6.37;;;1.40;99.90;;;;;;4994706;28;21013;-47
2021/01/14 06:05:55;;;;;;;10.97;6.10;;;1.40;99.90;;;;;;4991669;28;20481;-47
2021/01/14 06:08:25;;;;;;;8.60;6.40;;;1.40;99.90;;;;;;4990845;28;21081;-47
2021/01/14 06:10:53;;;;;;;11.47;6.40;;;1.40;99.90;;;;;;4993243;28;20488;-48
2021/01/14 06:13:39;;;;;;;11.93;6.37;;;1.40;99.90;;;;;;4992417;28;21216;-48
2021/01/14 06:16:08;;;;;;;7.97;5.33;;;1.40;99.90;;;;;;4991810;28;20480;-47
2021/01/14 06:18:36;;;;;;;10.30;6.37;;;1.40;99.90;;;;;;4990273;28;20472;-48
2021/01/14 06:21:03;;;;;;;9.03;6.00;;;1.40;99.90;;;;;;4992533;28;20539;-49
2021/01/14 06:23:45;;;;;;;9.73;6.03;;;1.40;99.90;;;;;;4992107;28;20494;-48
2021/01/14 06:26:26;;;;;;;9.00;5.87;;;1.40;99.90;;;;;;4992960;28;20920;-47
2021/01/14 06:28:56;;;;;;;7.80;5.33;;;1.40;99.90;;;;;;4990612;28;20504;-47
2021/01/14 06:31:27;;;;;;;11.20;6.30;;;1.40;99.90;;;;;;4992607;28;20496;-49
2021/01/14 06:33:55;;;;;;;9.13;5.53;;;1.40;99.90;;;;;;4994652;28;20900;-48
2021/01/14 06:36:33;;;;;;;9.77;5.43;;;1.40;99.90;;;;;;4996318;28;20480;-47
2021/01/14 06:39:12;;;;;;;8.67;5.97;;;1.30;99.90;;;;;;4999270;28;20492;-47
2021/01/14 06:41:42;;;;;;;9.70;5.90;;;1.30;99.90;;;;;;5004471;28;20916;-47
2021/01/14 06:44:12;;;;;;;8.60;5.73;;;1.40;99.90;;;;;;5006382;28;20575;-47
2021/01/14 06:46:40;;;;;;;8.43;6.13;;;1.40;99.90;;;;;;5008947;28;20491;-47
2021/01/14 06:49:13;;;;;;;9.03;5.80;;;1.40;99.90;;;;;;5003119;28;20560;-48
2021/01/14 06:51:57;;;;;;;11.00;6.03;;;1.40;99.90;;;;;;5004131;28;20487;-47
2021/01/14 06:54:26;;;;;;;8.37;5.97;;;1.40;99.90;;;;;;5010770;28;20960;-48
2021/01/14 06:57:08;;;;;;;8.63;6.00;;;1.40;99.90;;;;;;5014538;28;20500;-47
2021/01/14 06:59:38;;;;;;;10.93;6.40;;;1.40;99.90;;;;;;4986575;28;20480;-48
2021/01/14 07:02:54;;;;;;;9.17;6.33;;;1.40;99.90;;;;;;4986938;28;20547;-48
2021/01/14 07:05:38;;;;;;;10.30;6.27;;;1.40;99.90;;;;;;4986505;28;20549;-48
2021/01/14 07:08:29;;;;;;;8.10;5.63;;;1.40;99.90;;;;;;4987152;28;20939;-48
2021/01/14 07:11:11;;;;;;;8.57;6.80;;;1.40;99.90;;;;;;5002669;28;20577;-48
2021/01/14 07:13:41;;;;;;;8.43;5.53;;;1.40;99.90;;;;;;4986039;28;20470;-48
2021/01/14 07:16:11;;;;;;;10.63;5.70;;;1.40;99.90;;;;;;4986989;28;20512;-48
2021/01/14 07:18:41;;;;;;;9.67;5.77;;;1.40;99.90;;;;;;4986576;28;20986;-48
2021/01/14 07:21:36;;;;;;;8.90;5.63;;;1.40;99.90;;;;;;4985732;28;20592;-48
2021/01/14 07:24:11;;;;;;;10.27;5.90;;;1.40;99.90;;;;;;4951650;28;21270;-48
2021/01/14 07:26:43;;;;;;;9.73;5.80;;;1.40;99.90;;;;;;4986450;28;21031;-48
2021/01/14 07:29:13;;;;;;;7.43;5.50;;;1.50;99.90;;;;;;4986606;28;20479;-48
2021/01/14 07:31:49;;;;;;;7.50;5.37;;;1.50;99.90;;;;;;4986051;28;20888;-48
2021/01/14 07:34:36;;;;;;;11.30;6.20;;;1.50;99.90;;;;;;4987781;28;21006;-48
2021/01/14 07:37:08;;;;;;;11.47;5.90;;;1.50;99.90;;;;;;4986487;28;21078;-48
2021/01/14 07:39:51;;;;;;;8.53;5.50;;;1.50;99.90;;;;;;4985977;28;20493;-48
2021/01/14 07:42:26;;;;;;;12.40;6.13;;;1.50;99.90;;;;;;5004332;28;20480;-48
2021/01/14 07:44:56;;;;;;;10.40;6.47;;;1.50;99.90;;;;;;5001060;28;20999;-48
2021/01/14 07:47:28;;;;;;;11.07;6.27;;;1.50;99.90;;;;;;5005103;28;20853;-47
2021/01/14 07:49:57;;;;;;;7.20;5.50;;;1.50;99.90;;;;;;5001304;28;20476;-48
2021/01/14 07:52:34;;;;;;;8.50;5.50;;;1.50;99.90;;;;;;5017148;28;20487;-47
2021/01/14 07:55:05;;;;;;;9.23;5.67;;;1.50;99.90;;;;;;5025414;28;21029;-48
2021/01/14 07:57:46;;;;;;;7.50;5.40;;;1.50;99.90;;;;;;5023989;28;20529;-47
2021/01/14 08:00:23;;;;;;;8.93;5.67;;;1.50;99.90;;;;;;5017075;28;20463;-48
2021/01/14 08:03:13;;;;;;;9.83;5.70;;;1.50;99.90;;;;;;5024276;28;20998;-48
2021/01/14 08:05:43;;;;;;;7.60;5.30;;;1.60;99.90;;;;;;5025086;28;21074;-48
2021/01/14 08:08:54;;;;;;;9.33;5.93;;;1.60;99.90;;;;;;5025204;28;20482;-48
2021/01/14 08:11:24;;;;;;;8.40;5.30;;;1.60;99.90;;;;;;5001643;28;20992;-48
2021/01/14 08:14:10;;;;;;;8.80;5.87;;;1.60;99.90;;;;;;5002022;28;20655;-48
2021/01/14 08:16:43;;;;;;;11.23;5.90;;;1.60;99.90;;;;;;5011782;28;20479;-48
2021/01/14 08:19:28;;;;;;;11.43;5.87;;;1.60;99.90;;;;;;5026475;28;20481;-48
2021/01/14 08:22:09;;;;;;;8.77;5.70;;;1.60;99.90;;;;;;5025924;28;20554;-48
2021/01/14 08:24:44;;;;;;;10.73;5.57;;;1.60;99.90;;;;;;5025967;28;20503;-48
2021/01/14 08:27:24;;;;;;;11.57;6.27;;;1.60;99.90;;;;;;5026136;28;20516;-48
2021/01/14 08:30:05;;;;;;;8.63;5.67;;;1.70;99.90;;;;;;5025706;28;20552;-48
2021/01/14 08:32:41;;;;;;;9.93;5.97;;;1.70;99.90;;;;;;5025825;28;21021;-48
2021/01/14 08:35:31;;;;;;;11.37;5.97;;;1.70;99.90;;;;;;5025605;28;20529;-48
2021/01/14 08:38:02;;;;;;;8.57;5.80;;;1.70;99.90;;;;;;5025637;28;20484;-48
2021/01/14 08:40:33;;;;;;;10.77;6.37;;;1.70;99.90;;;;;;5025445;28;20854;-48
2021/01/14 08:43:07;;;;;;;8.07;5.77;;;1.70;99.90;;;;;;5007943;28;20496;-48
2021/01/14 08:45:37;;;;;;;8.80;6.30;;;1.70;99.90;;;;;;4996835;28;20485;-48
2021/01/14 08:48:10;;;;;;;10.20;5.87;;;1.70;99.90;;;;;;5001328;28;20833;-47
2021/01/14 08:50:47;;;;;;;13.57;6.17;;;1.80;99.90;;;;;;5004724;28;20481;-47
2021/01/14 08:53:30;;;;;;;10.57;5.70;;;1.80;99.90;;;;;;5005832;28;20516;-47
2021/01/14 08:55:59;;;;;;;7.83;5.37;;;1.80;99.90;;;;;;5003688;28;20496;-48
2021/01/14 08:58:42;;;;;;;9.70;5.87;;;1.80;99.90;;;;;;5005148;28;20512;-48
2021/01/14 09:01:17;;;;;;;10.03;6.20;;;1.80;99.90;;;;;;5006254;28;20476;-48
2021/01/14 09:03:47;;;;;;;7.90;5.90;;;1.80;99.90;;;;;;5005087;28;20472;-48
2021/01/14 09:06:14;;;;;;;9.17;6.67;;;1.90;99.90;;;;;;5005571;28;20884;-47
2021/01/14 09:08:42;;;;;;;8.87;5.50;;;1.90;99.90;;;;;;4998541;28;21038;-48
2021/01/14 09:11:09;;;;;;;10.73;5.70;;;1.90;99.90;;;;;;4994823;28;20555;-48
2021/01/14 09:13:37;;;;;;;10.90;6.20;;;1.90;99.90;;;;;;5001056;28;20508;-48
2021/01/14 09:16:11;;;;;;;11.10;6.93;;;1.90;99.90;;;;;;5004020;28;20509;-48
2021/01/14 09:18:40;;;;;;;11.50;6.00;;;1.90;99.90;;;;;;5002271;28;21197;-48
2021/01/14 09:21:09;;;;;;;9.60;5.67;;;1.90;99.90;;;;;;5003706;28;20487;-48
2021/01/14 09:23:38;;;;;;;11.20;6.03;;;1.80;99.90;;;;;;5003940;28;20479;-48
2021/01/14 09:26:12;;;;;;;7.90;5.27;;;1.80;99.90;;;;;;5003632;28;23362;-48
2021/01/14 09:28:42;;;;;;;9.57;5.43;;;1.70;99.90;;;;;;5002074;28;20986;-48
2021/01/14 09:31:15;;;;;;;9.80;5.50;;;1.80;99.90;;;;;;4998343;28;20474;-48
2021/01/14 09:33:44;;;;;;;11.20;6.00;;;1.80;99.90;;;;;;4987820;28;20482;-48
2021/01/14 09:36:14;;;;;;;10.33;6.20;;;1.80;99.90;;;;;;4948683;28;22052;-48
2021/01/14 09:38:47;;;;;;;9.25;5.68;;;1.80;99.90;;;;;;1003331;28;10002023;-48
2021/01/14 09:41:23;;;;;;;9.40;6.20;;;1.80;99.90;;;;;;4998038;28;20241;-48
2021/01/14 09:43:56;;;;;;;9.57;5.97;;;1.80;99.90;;;;;;5007491;28;20476;-48
2021/01/14 09:46:26;;;;;;;9.53;5.53;;;1.90;99.90;;;;;;5009741;28;20490;-48
2021/01/14 09:49:01;;;;;;;10.63;6.17;;;2.00;99.90;;;;;;5023975;28;20475;-48
2021/01/14 09:51:29;;;;;;;12.80;5.67;;;2.00;99.90;;;;;;5004915;28;21075;-48
2021/01/14 09:53:57;;;;;;;11.50;6.23;;;2.00;99.90;;;;;;5004924;28;20473;-48
2021/01/14 09:56:32;;;;;;;10.00;6.37;;;2.00;99.90;;;;;;5004817;28;20484;-48
2021/01/14 09:59:07;;;;;;;11.40;6.10;;;1.90;99.90;;;;;;5005172;28;20519;-48
2021/01/14 10:01:43;;;;;;;9.07;5.97;;;1.90;99.90;;;;;;5004091;28;20512;-48
2021/01/14 10:04:15;;;;;;;10.57;6.40;;;1.90;99.90;;;;;;5014907;28;20484;-48
2021/01/14 10:06:49;;;;;;;11.03;5.60;;;1.90;99.90;;;;;;5024470;28;20564;-48
2021/01/14 10:09:17;;;;;;;9.60;6.17;;;1.90;99.90;;;;;;5028955;28;20537;-48
2021/01/14 10:11:46;;;;;;;11.93;6.40;;;1.90;99.90;;;;;;5028090;28;20485;-48
2021/01/14 10:14:18;;;;;;;10.57;5.93;;;1.80;99.90;;;;;;5022230;28;20483;-48
2021/01/14 10:16:48;;;;;;;12.53;6.37;;;1.90;99.90;;;;;;5016451;28;20483;-48
2021/01/14 10:19:18;;;;;;;8.60;5.70;;;1.90;99.90;;;;;;5028397;28;20483;-48
2021/01/14 10:21:48;;;;;;;7.80;6.13;;;1.90;99.90;;;;;;5027666;28;20804;-48
2021/01/14 10:24:22;;;;;;;9.90;6.43;;;1.90;99.90;;;;;;5028133;28;21063;-48
2021/01/14 10:26:49;;;;;;;10.70;6.33;;;1.90;99.90;;;;;;5027817;28;20490;-48
2021/01/14 10:29:38;;;;;;;10.40;6.30;;;1.90;99.90;;;;;;5028242;28;20494;-48
2021/01/14 10:32:09;;;;;;;10.87;6.53;;;1.90;99.90;;;;;;5027782;28;20482;-48
2021/01/14 10:34:41;;;;;;;10.60;6.40;;;1.90;99.90;;;;;;5022801;28;20491;-48
2021/01/14 10:37:22;;;;;;;9.33;6.40;;;1.90;99.90;;;;;;5004266;28;21090;-48
2021/01/14 10:39:50;;;;;;;10.63;6.80;;;1.90;99.90;;;;;;5003304;28;21060;-48
2021/01/14 10:42:34;;;;;;;8.53;6.60;;;1.90;99.90;;;;;;5010121;28;20476;-48
2021/01/14 10:45:08;;;;;;;10.10;6.60;;;1.90;99.90;;;;;;5025814;28;20496;-48
2021/01/14 10:47:37;;;;;;;11.07;6.43;;;1.90;99.90;;;;;;5026210;28;20545;-48
2021/01/14 10:50:20;;;;;;;10.33;7.07;;;1.90;99.90;;;;;;5016362;28;20484;-48
2021/01/14 10:52:57;;;;;;;7.63;6.47;;;1.90;99.90;;;;;;5006369;28;21052;-48
2021/01/14 10:55:25;;;;;;;8.10;6.60;;;1.90;99.90;;;;;;5006467;28;20512;-48
2021/01/14 10:58:02;;;;;;;10.17;6.30;;;1.90;99.90;;;;;;5006610;28;20483;-48
2021/01/14 11:00:37;;;;;;;9.90;6.77;;;1.90;99.90;;;;;;5009214;28;20633;-48
2021/01/14 11:03:08;;;;;;;9.80;6.83;;;1.90;99.90;;;;;;5007500;28;20903;-48
2021/01/14 11:05:46;;;;;;;10.20;7.50;;;1.90;99.90;;;;;;5018029;28;20485;-48
2021/01/14 11:08:15;;;;;;;10.50;6.47;;;1.90;99.90;;;;;;5025939;28;21034;-48
2021/01/14 11:10:46;;;;;;;9.70;6.43;;;1.90;99.90;;;;;;5025831;28;20479;-48
2021/01/14 11:13:15;;;;;;;10.37;6.87;;;1.90;99.90;;;;;;5026183;28;20571;-48
2021/01/14 11:15:43;;;;;;;10.17;7.13;;;1.90;99.90;;;;;;5025690;28;21021;-48
2021/01/14 11:18:12;;;;;;;10.73;6.93;;;1.90;99.90;;;;;;5026344;28;20468;-48
2021/01/14 11:20:40;;;;;;;9.80;6.77;;;1.90;99.90;;;;;;5024274;28;20476;-48
2021/01/14 11:23:07;;;;;;;7.97;6.90;;;1.90;99.90;;;;;;5026000;28;20570;-48
2021/01/14 11:25:34;;;;;;;10.30;6.90;;;1.90;99.90;;;;;;5025997;28;20574;-48
2021/01/14 11:28:02;;;;;;;8.63;6.90;;;1.90;99.90;;;;;;5026235;28;21114;-48
2021/01/14 11:30:30;;;;;;;9.20;7.03;;;1.90;99.90;;;;;;5025833;28;20484;-48
2021/01/14 11:32:57;;;;;;;12.33;7.20;;;1.90;99.90;;;;;;5025777;28;20669;-48
2021/01/14 11:35:25;;;;;;;8.97;6.67;;;1.90;99.90;;;;;;5019233;28;20484;-48
2021/01/14 11:37:56;;;;;;;9.13;6.97;;;1.90;99.90;;;;;;5004996;28;20480;-48
2021/01/14 11:40:24;;;;;;;10.63;7.00;;;1.90;99.90;;;;;;5014818;28;21028;-49
2021/01/14 11:42:51;;;;;;;10.10;7.03;;;1.90;99.90;;;;;;5021530;28;20744;-48
2021/01/14 11:45:18;;;;;;;9.33;6.20;;;1.90;99.90;;;;;;5025225;28;20482;-49
2021/01/14 11:47:47;;;;;;;9.47;6.63;;;1.80;99.90;;;;;;5022515;28;20482;-49
2021/01/14 11:50:14;;;;;;;9.03;6.30;;;1.90;99.90;;;;;;5005907;28;21027;-48
2021/01/14 11:52:42;;;;;;;9.30;6.37;;;1.90;99.90;;;;;;5005382;28;20482;-48
2021/01/14 11:55:11;;;;;;;7.13;6.03;;;1.90;99.90;;;;;;5005471;28;20499;-47
2021/01/14 11:57:38;;;;;;;7.97;5.90;;;1.90;99.90;;;;;;5005132;28;20480;-48
2021/01/14 12:00:08;;;;;;;9.20;6.13;;;1.90;99.90;;;;;;5005225;28;20485;-48
2021/01/14 12:02:38;;;;;;;12.03;6.67;;;1.90;99.90;;;;;;5005203;28;21047;-48
2021/01/14 12:05:07;;;;;;;9.60;6.43;;;1.90;99.90;;;;;;5006710;28;20601;-48
2021/01/14 12:07:34;;;;;;;10.30;6.37;;;1.80;99.90;;;;;;5016853;28;20483;-48
2021/01/14 12:10:04;;;;;;;7.60;6.13;;;1.80;99.90;;;;;;5023323;28;20508;-48
2021/01/14 12:12:32;;;;;;;9.57;6.47;;;1.80;99.90;;;;;;5004988;28;20488;-48
2021/01/14 12:15:00;;;;;;;8.37;6.10;;;1.80;99.90;;;;;;5005282;28;20517;-48
2021/01/14 12:17:27;;;;;;;7.63;6.00;;;1.80;99.90;;;;;;5005441;28;20492;-48
2021/01/14 12:20:05;;;;;;;11.33;6.33;;;1.80;99.90;;;;;;5004636;28;20987;-47
2021/01/14 12:22:38;;;;;;;7.17;5.67;;;1.80;99.90;;;;;;5003449;28;20572;-48
2021/01/14 12:25:09;;;;;;;8.73;6.40;;;1.80;99.90;;;;;;5004194;28;20485;-47
2021/01/14 12:27:36;;;;;;;8.07;6.17;;;1.80;99.90;;;;;;5004824;28;21003;-48
2021/01/14 12:30:06;;;;;;;9.13;6.43;;;1.80;99.90;;;;;;5004617;28;20525;-48
2021/01/14 12:32:34;;;;;;;8.93;6.43;;;1.90;99.90;;;;;;5004281;28;20512;-48
2021/01/14 12:35:01;;;;;;;7.57;5.93;;;1.90;99.90;;;;;;5007482;28;20701;-48
2021/01/14 12:37:32;;;;;;;9.13;6.07;;;1.90;99.90;;;;;;5004742;28;20485;-48
2021/01/14 12:40:00;;;;;;;7.70;5.43;;;1.90;99.90;;;;;;5014157;28;20877;-48
2021/01/14 12:42:28;;;;;;;8.27;6.10;;;1.90;99.90;;;;;;5023892;28;20483;-48
2021/01/14 12:44:56;;;;;;;6.87;5.63;;;1.90;99.90;;;;;;5024259;28;20479;-48
2021/01/14 12:47:24;;;;;;;8.03;5.90;;;2.00;99.90;;;;;;5024209;28;20481;-48
2021/01/14 12:49:52;;;;;;;10.47;6.10;;;2.00;99.90;;;;;;5015449;28;20496;-48
2021/01/14 12:52:19;;;;;;;7.10;5.40;;;2.00;99.90;;;;;;5003742;28;21058;-47
2021/01/14 12:54:47;;;;;;;9.07;5.93;;;2.00;99.90;;;;;;5004253;28;20500;-48
2021/01/14 12:57:14;;;;;;;8.87;5.60;;;2.00;99.90;;;;;;5004352;28;20480;-48
2021/01/14 12:59:42;;;;;;;9.17;6.13;;;2.00;99.90;;;;;;5006621;28;20570;-48
2021/01/14 13:02:14;;;;;;;8.43;6.00;;;2.00;99.90;;;;;;5003859;28;20512;-48
2021/01/14 13:04:41;;;;;;;8.00;5.33;;;1.90;99.90;;;;;;5003686;28;20564;-48
2021/01/14 13:07:08;;;;;;;8.30;6.17;;;1.90;99.90;;;;;;5005610;28;20504;-48
2021/01/14 13:09:35;;;;;;;7.53;5.27;;;2.00;99.90;;;;;;5015120;28;20916;-48
2021/01/14 13:12:03;;;;;;;8.07;5.93;;;2.00;99.90;;;;;;5024563;28;20512;-48
2021/01/14 13:14:31;;;;;;;8.83;6.03;;;1.90;99.90;;;;;;5025111;28;20556;-48